Time;durP1;ratioP1;P1;durP2;ratioP2;P2;SDS_P1;SDS_P2;PMS_P1;PMS_P2;Temp;Humidity;BMP_temperature;BMP_pressure;BME280_temperature;BME280_humidity;BME280_pressure;Samples;Min_cycle;Max_cycle;Signal;HPM_P1;HPM_P2
2022/06/27 00:00:16;;;;;;;;;2.75;2.75;;;;;19.64;54.40;100762.16;5018124;28;46154;-81
2022/06/27 00:02:42;;;;;;;;;3.75;3.75;;;;;19.63;54.23;100764.97;5019126;28;45520;-81
2022/06/27 00:05:08;;;;;;;;;4.00;4.00;;;;;19.55;54.17;100749.00;5019994;28;45516;-83
2022/06/27 00:07:34;;;;;;;;;4.75;3.00;;;;;19.52;53.87;100752.81;5018932;28;46616;-82
2022/06/27 00:09:59;;;;;;;;;4.75;3.00;;;;;19.40;54.44;100729.34;5016824;28;47258;-85
2022/06/27 00:12:25;;;;;;;;;4.00;4.00;;;;;19.42;54.67;100749.44;5017826;28;45430;-84
2022/06/27 00:18:12;;;;;;;;;2.00;2.00;;;;;19.34;54.41;100753.91;5016953;28;45457;-80
2022/06/27 00:20:37;;;;;;;;;3.50;3.00;;;;;19.29;54.38;100749.06;5017544;28;45581;-83
2022/06/27 00:23:03;;;;;;;;;2.00;2.00;;;;;19.27;54.01;100749.22;5017125;28;45566;-82
2022/06/27 00:25:28;;;;;;;;;3.00;2.25;;;;;19.35;54.35;100763.53;5017693;28;45527;-83
2022/06/27 00:27:53;;;;;;;;;3.75;2.25;;;;;19.28;54.30;100756.22;5017156;28;45577;-82
2022/06/27 00:33:40;;;;;;;;;3.00;2.75;;;;;19.29;54.02;100723.34;5016883;28;45577;-86
2022/06/27 00:36:06;;;;;;;;;4.50;3.50;;;;;19.36;54.26;100736.81;5017227;28;45581;-84
2022/06/27 00:38:31;;;;;;;;;3.00;3.00;;;;;19.42;54.23;100743.31;4998537;28;48705;-82
2022/06/27 00:40:57;;;;;;;;;4.00;3.00;;;;;19.45;54.06;100745.66;5016532;28;45557;-82
2022/06/27 00:43:22;;;;;;;;;3.25;2.00;;;;;19.36;53.83;100733.31;5015828;28;45766;-83
2022/06/27 00:45:48;;;;;;;;;3.00;2.00;;;;;19.36;54.05;100728.84;5018962;28;45539;-83
2022/06/27 00:48:13;;;;;;;;;2.75;2.00;;;;;19.46;53.86;100739.34;5017404;28;47424;-84
2022/06/27 00:50:40;;;;;;;;;2.50;2.00;;;;;19.54;53.63;100753.47;5019170;28;45996;-85
2022/06/27 00:53:07;;;;;;;;;1.25;1.25;;;;;19.46;53.39;100736.69;5017996;28;45542;-85
2022/06/27 00:55:32;;;;;;;;;4.00;2.50;;;;;19.44;53.77;100733.31;5017324;28;45653;-82
2022/06/27 00:58:00;;;;;;;;;2.50;2.00;;;;;19.54;53.48;100760.66;5019097;28;45679;-86
2022/06/27 01:03:47;;;;;;;;;2.00;1.00;;;;;19.56;53.46;100769.28;5019616;28;45709;-83
2022/06/27 01:06:13;;;;;;;;;6.50;3.50;;;;;19.53;53.61;100762.47;5019698;28;45584;-86
2022/06/27 01:08:39;;;;;;;;;4.00;3.00;;;;;19.53;53.42;100754.50;5020696;28;45653;-80
2022/06/27 01:11:04;;;;;;;;;2.50;2.50;;;;;19.44;53.72;100750.09;5023575;28;46203;-84
2022/06/27 01:13:31;;;;;;;;;3.50;3.50;;;;;19.58;53.36;100767.28;5025237;28;45599;-82
2022/06/27 01:15:56;;;;;;;;;6.50;5.00;;;;;19.53;53.55;100758.97;5021190;28;45520;-81
2022/06/27 01:18:22;;;;;;;;;3.75;3.00;;;;;19.46;53.71;100748.16;5024722;28;46783;-81
2022/06/27 01:20:47;;;;;;;;;5.50;5.00;;;;;19.40;53.87;100738.16;5026649;28;46526;-82
2022/06/27 01:23:13;;;;;;;;;4.00;4.00;;;;;19.47;53.93;100762.28;5019890;28;45458;-82
2022/06/27 01:25:38;;;;;;;;;4.00;3.00;;;;;19.43;53.92;100772.38;5019790;28;45735;-85
2022/06/27 01:28:07;;;;;;;;;5.00;3.00;;;;;19.29;53.72;100757.88;5020337;28;48525;-83
2022/06/27 01:33:54;;;;;;;;;3.00;3.00;;;;;19.25;53.90;100779.63;5023772;28;45650;-84
2022/06/27 01:39:04;;;;;;;;;4.00;3.25;;;;;19.21;54.12;100794.22;5022483;28;46019;-85
2022/06/27 01:41:30;;;;;;;;;3.00;2.50;;;;;19.17;54.01;100783.06;5022248;28;45514;-80
2022/06/27 01:43:56;;;;;;;;;4.00;3.00;;;;;19.14;54.03;100783.41;5022185;28;45418;-82
2022/06/27 01:46:21;;;;;;;;;3.75;3.00;;;;;19.09;54.30;100774.25;5022421;28;45612;-84
2022/06/27 01:48:46;;;;;;;;;2.00;2.00;;;;;19.01;54.45;100767.06;5021590;28;45674;-85
2022/06/27 01:51:13;;;;;;;;;3.00;3.00;;;;;19.08;54.54;100780.53;5022509;28;45728;-82
2022/06/27 01:53:40;;;;;;;;;2.50;2.50;;;;;19.05;54.46;100765.78;5020999;28;45805;-81
2022/06/27 01:56:05;;;;;;;;;3.75;3.00;;;;;19.08;54.28;100767.25;5022948;28;45544;-81
2022/06/27 01:58:32;;;;;;;;;2.50;2.50;;;;;19.12;54.43;100766.78;5022434;28;45724;-81
2022/06/27 02:04:20;;;;;;;;;3.00;2.00;;;;;19.19;54.23;100764.31;5020199;28;45564;-80
2022/06/27 02:06:47;;;;;;;;;3.75;3.00;;;;;19.22;54.26;100759.50;5024517;28;45546;-80
2022/06/27 02:09:14;;;;;;;;;3.00;2.50;;;;;19.16;54.23;100740.75;5024832;28;45511;-82
2022/06/27 02:11:42;;;;;;;;;2.25;2.00;;;;;19.19;54.31;100735.94;5023449;28;45931;-81
2022/06/27 02:14:08;;;;;;;;;3.00;3.00;;;;;19.31;54.00;100751.56;5021830;28;45658;-79
2022/06/27 02:16:33;;;;;;;;;3.00;3.00;;;;;19.34;54.06;100749.41;5017706;28;45820;-80
2022/06/27 02:18:59;;;;;;;;;3.00;3.00;;;;;19.34;53.65;100743.28;5018497;28;48635;-80
2022/06/27 02:21:26;;;;;;;;;2.25;2.00;;;;;19.38;53.43;100747.28;5020827;28;45690;-80
2022/06/27 02:23:53;;;;;;;;;3.00;2.00;;;;;19.31;53.53;100736.47;5021588;28;45681;-83
2022/06/27 02:26:31;;;;;;;;;3.00;2.75;;;;;19.34;53.84;100737.97;5021344;28;45470;-81
2022/06/27 02:28:58;;;;;;;;;3.50;3.50;;;;;19.44;53.58;100766.03;5017469;28;45775;-83
2022/06/27 02:34:47;;;;;;;;;3.00;2.00;;;;;19.48;53.52;100759.47;5024048;28;45574;-81
2022/06/27 02:37:12;;;;;;;;;2.00;2.00;;;;;19.52;53.97;100755.47;5024228;28;45694;-83
2022/06/27 02:39:40;;;;;;;;;3.00;3.00;;;;;19.54;53.51;100747.34;5025090;28;45555;-80
2022/06/27 02:42:08;;;;;;;;;3.75;3.00;;;;;19.49;53.59;100744.31;5023774;28;46066;-81
2022/06/27 02:44:34;;;;;;;;;2.75;2.25;;;;;19.59;53.49;100769.78;5022435;28;45466;-81
2022/06/27 02:47:01;;;;;;;;;2.00;2.00;;;;;19.57;53.32;100770.94;5022585;28;45492;-82
2022/06/27 02:49:27;;;;;;;;;2.00;2.00;;;;;19.63;53.22;100780.94;5018542;28;46743;-81
2022/06/27 02:52:10;;;;;;;;;2.75;2.75;;;;;19.62;52.83;100785.41;5018606;28;46079;-81
2022/06/27 02:54:42;;;;;;;;;2.00;2.00;;;;;19.61;53.00;100777.59;5019987;28;45484;-81
2022/06/27 02:57:18;;;;;;;;;4.75;4.00;;;;;19.53;53.07;100770.44;5019392;28;45579;-84
2022/06/27 02:59:45;;;;;;;;;3.00;2.00;;;;;19.59;53.03;100775.13;5019305;28;45655;-82
2022/06/27 03:02:11;;;;;;;;;4.00;3.25;;;;;19.60;53.12;100779.41;5018960;28;46230;-84
2022/06/27 03:04:38;;;;;;;;;3.75;3.00;;;;;19.61;52.98;100773.09;5019971;28;45544;-84
2022/06/27 03:07:03;;;;;;;;;2.50;2.50;;;;;19.68;53.11;100781.25;5019739;28;45655;-81
2022/06/27 03:09:29;;;;;;;;;3.00;2.00;;;;;19.60;53.18;100754.66;5020065;28;45719;-83
2022/06/27 03:11:54;;;;;;;;;3.50;3.25;;;;;19.64;53.11;100762.16;5020779;28;45586;-83
2022/06/27 03:14:20;;;;;;;;;4.00;3.25;;;;;19.72;53.25;100768.47;5022717;28;46161;-84
2022/06/27 03:20:07;;;;;;;;;3.00;3.00;;;;;19.71;53.13;100751.69;5023753;28;46219;-83
2022/06/27 03:22:33;;;;;;;;;3.25;3.00;;;;;19.69;52.82;100746.53;5020922;28;45655;-83
2022/06/27 03:24:58;;;;;;;;;4.25;4.00;;;;;19.68;53.10;100750.19;5021610;28;45595;-82
2022/06/27 03:27:24;;;;;;;;;4.25;3.25;;;;;19.75;53.25;100758.34;5021985;28;45567;-84
2022/06/27 03:29:49;;;;;;;;;3.00;3.00;;;;;19.75;53.74;100741.56;5003768;28;47640;-89
2022/06/27 03:32:14;;;;;;;;;3.00;2.75;;;;;19.68;53.45;100744.88;5023622;28;45675;-84
2022/06/27 03:34:40;;;;;;;;;3.00;3.00;;;;;19.64;53.23;100740.06;5022373;28;45805;-80
2022/06/27 03:37:07;;;;;;;;;3.00;3.00;;;;;19.67;53.52;100747.69;5027711;28;45229;-82
2022/06/27 03:39:32;;;;;;;;;3.25;3.00;;;;;19.62;53.46;100737.56;5006916;28;47804;-80
2022/06/27 03:41:58;;;;;;;;;3.50;3.00;;;;;19.68;53.89;100738.72;5018222;28;45684;-85
2022/06/27 03:44:23;;;;;;;;;4.00;4.00;;;;;19.61;53.49;100740.38;5018222;28;45652;-81
2022/06/27 03:50:25;;;;;;;;;2.75;2.75;;;;;19.57;53.46;100757.66;5016315;28;46061;-83
2022/06/27 03:52:53;;;;;;;;;2.00;2.00;;;;;19.53;53.76;100749.19;5018288;28;45671;-84
2022/06/27 03:55:19;;;;;;;;;3.75;3.00;;;;;19.55;53.97;100764.94;5018218;28;45758;-83
2022/06/27 03:57:55;;;;;;;;;4.25;3.00;;;;;19.56;53.39;100756.81;5017951;28;45580;-85
2022/06/27 04:00:24;;;;;;;;;3.00;3.00;;;;;19.52;54.01;100754.66;5017504;28;47885;-81
2022/06/27 04:02:50;;;;;;;;;2.50;2.25;;;;;19.44;53.85;100752.75;5017700;28;46315;-85
2022/06/27 04:05:16;;;;;;;;;3.75;3.00;;;;;19.55;54.00;100775.56;5017714;28;45434;-84
2022/06/27 04:07:41;;;;;;;;;2.00;2.00;;;;;19.48;53.68;100762.13;5018041;28;45590;-81
2022/06/27 04:10:08;;;;;;;;;3.50;2.75;;;;;19.55;53.79;100772.91;5017348;28;46578;-83
2022/06/27 04:12:34;;;;;;;;;3.00;2.00;;;;;19.50;53.65;100768.09;5016084;28;47846;-82
2022/06/27 04:15:00;;;;;;;;;2.75;2.25;;;;;19.53;53.95;100788.22;5017496;28;45658;-81
2022/06/27 04:20:48;;;;;;;;;4.00;3.50;;;;;19.56;54.27;100794.03;5026053;28;45567;-79
2022/06/27 04:23:13;;;;;;;;;4.00;3.00;;;;;19.53;54.14;100797.03;5029505;28;45503;-79
2022/06/27 04:25:39;;;;;;;;;2.00;2.00;;;;;19.50;53.95;100794.66;5023079;28;45513;-79
2022/06/27 04:28:04;;;;;;;;;4.25;3.00;;;;;19.54;54.48;100800.50;5021838;28;45495;-83
2022/06/27 04:30:31;;;;;;;;;3.00;3.00;;;;;19.50;54.26;100794.66;5019772;28;45543;-82
2022/06/27 04:32:57;;;;;;;;;2.75;2.75;;;;;19.52;54.32;100824.59;5019163;28;46171;-82
2022/06/27 04:35:23;;;;;;;;;3.00;3.00;;;;;19.51;54.11;100822.91;5018468;28;45591;-83
2022/06/27 04:37:48;;;;;;;;;4.25;4.00;;;;;19.52;54.37;100829.91;5017088;28;45512;-82
2022/06/27 04:40:14;;;;;;;;;3.25;2.25;;;;;19.52;54.17;100835.22;5017089;28;46368;-84
2022/06/27 04:42:42;;;;;;;;;3.00;2.25;;;;;19.49;54.33;100830.22;4998960;28;47434;-81
2022/06/27 04:45:11;;;;;;;;;3.00;3.00;;;;;19.53;54.29;100838.72;5017170;28;45627;-84
2022/06/27 04:50:59;;;;;;;;;3.00;2.50;;;;;19.54;54.53;100821.78;5016325;28;45723;-81
2022/06/27 04:53:25;;;;;;;;;3.00;2.50;;;;;19.53;54.61;100820.94;5015688;28;46488;-83
2022/06/27 04:55:51;;;;;;;;;3.50;3.50;;;;;19.47;54.50;100805.63;5018384;28;45603;-82
2022/06/27 04:58:17;;;;;;;;;3.00;3.00;;;;;19.51;54.87;100814.09;5019545;28;45523;-81
2022/06/27 05:00:43;;;;;;;;;4.00;3.50;;;;;19.42;54.51;100791.97;5017478;28;46481;-81
2022/06/27 05:03:09;;;;;;;;;2.75;2.75;;;;;19.51;54.40;100800.81;5017721;28;46245;-81
2022/06/27 05:05:35;;;;;;;;;3.00;2.00;;;;;19.49;54.83;100789.50;5016718;28;45574;-85
2022/06/27 05:08:01;;;;;;;;;3.50;2.00;;;;;19.51;54.29;100783.06;5016663;28;45549;-82
2022/06/27 05:10:27;;;;;;;;;3.00;3.00;;;;;19.51;54.78;100780.41;5016441;28;46641;-80
2022/06/27 05:12:53;;;;;;;;;4.00;3.00;;;;;19.49;54.65;100776.22;5016851;28;46000;-79
2022/06/27 05:15:18;;;;;;;;;5.50;3.00;;;;;19.53;54.75;100804.16;5018261;28;45964;-81
2022/06/27 05:21:05;;;;;;;;;4.00;3.00;;;;;19.54;54.94;100803.19;5016060;28;46090;-81
2022/06/27 05:23:32;;;;;;;;;4.00;3.25;;;;;19.51;54.88;100799.00;5016611;28;45553;-85
2022/06/27 05:26:01;;;;;;;;;4.00;3.00;;;;;19.54;54.77;100808.50;5019243;28;45749;-85
2022/06/27 05:28:26;;;;;;;;;2.25;2.25;;;;;19.52;54.39;100790.03;5019100;28;45717;-82
2022/06/27 05:30:52;;;;;;;;;3.00;2.25;;;;;19.39;54.32;100775.50;5018158;28;45538;-81
2022/06/27 05:36:38;;;;;;;;;3.00;3.00;;;;;19.40;54.82;100817.03;5017207;28;45590;-90
2022/06/27 05:39:05;;;;;;;;;2.00;2.00;;;;;19.41;54.84;100805.41;5020553;28;45618;-83
2022/06/27 05:41:31;;;;;;;;;2.75;2.75;;;;;19.32;54.21;100799.25;5017827;28;48123;-83
2022/06/27 05:43:56;;;;;;;;;3.00;3.00;;;;;19.29;54.21;100819.00;5018593;28;45618;-84
2022/06/27 05:46:23;;;;;;;;;4.00;2.75;;;;;19.26;54.87;100827.28;5019504;28;45561;-86
2022/06/27 05:48:49;;;;;;;;;3.00;3.00;;;;;19.31;55.00;100829.47;5021339;28;45464;-87
2022/06/27 05:51:14;;;;;;;;;2.00;2.00;;;;;19.27;54.60;100815.66;5020824;28;45536;-82
2022/06/27 05:53:40;;;;;;;;;3.00;2.00;;;;;19.24;54.20;100805.34;5022388;28;45563;-84
2022/06/27 05:56:06;;;;;;;;;4.00;3.00;;;;;19.28;54.39;100825.28;5018064;28;45540;-90
2022/06/27 05:58:33;;;;;;;;;2.00;2.00;;;;;19.29;54.43;100829.63;5015923;28;45771;-82
2022/06/27 06:00:59;;;;;;;;;2.00;2.00;;;;;19.36;54.33;100843.09;5016740;28;46429;-84
2022/06/27 06:06:46;;;;;;;;;4.00;3.00;;;;;19.38;54.58;100859.69;5019477;28;45544;-83
2022/06/27 06:09:13;;;;;;;;;3.25;3.00;;;;;19.36;54.90;100859.03;5019533;28;45685;-80
2022/06/27 06:11:39;;;;;;;;;3.50;3.00;;;;;19.31;54.92;100849.88;5018736;28;46452;-80
2022/06/27 06:14:05;;;;;;;;;3.00;2.00;;;;;19.28;54.54;100835.91;5018941;28;45556;-80
2022/06/27 06:16:31;;;;;;;;;3.75;3.00;;;;;19.38;54.76;100865.00;5017974;28;45620;-84
2022/06/27 06:18:57;;;;;;;;;3.75;3.00;;;;;19.29;54.44;100842.91;5018376;28;45462;-81
2022/06/27 06:21:24;;;;;;;;;3.00;3.00;;;;;19.38;55.30;100841.09;5018026;28;46297;-81
2022/06/27 06:23:51;;;;;;;;;2.75;2.75;;;;;19.36;55.04;100823.66;5016098;28;47355;-82
2022/06/27 06:26:19;;;;;;;;;4.50;3.00;;;;;19.36;55.10;100831.63;5017717;28;45767;-82
2022/06/27 06:28:46;;;;;;;;;2.50;2.25;;;;;19.39;54.97;100863.19;5018050;28;45608;-81
2022/06/27 06:31:21;;;;;;;;;3.50;3.00;;;;;19.32;55.35;100864.84;5017898;28;45990;-83
2022/06/27 06:37:09;;;;;;;;;2.00;2.00;;;;;19.33;55.40;100871.78;5016928;28;45797;-78
2022/06/27 06:39:36;;;;;;;;;4.00;3.00;;;;;19.37;55.52;100891.78;5017346;28;45714;-80
2022/06/27 06:42:03;;;;;;;;;3.00;2.00;;;;;19.36;55.45;100892.75;5016552;28;45766;-77
2022/06/27 06:44:28;;;;;;;;;3.00;2.75;;;;;19.38;55.29;100885.47;5016545;28;46592;-80
2022/06/27 06:46:55;;;;;;;;;3.00;3.00;;;;;19.40;55.48;100878.16;5014858;28;45688;-80
2022/06/27 06:49:21;;;;;;;;;3.00;2.50;;;;;19.41;55.14;100879.81;5017053;28;45512;-79
2022/06/27 06:51:48;;;;;;;;;3.00;3.00;;;;;19.45;55.46;100902.44;5016055;28;45882;-79
2022/06/27 06:54:20;;;;;;;;;2.75;2.75;;;;;19.41;55.48;100901.09;5016866;28;46146;-79
2022/06/27 06:56:49;;;;;;;;;3.00;3.00;;;;;19.43;55.18;100905.25;5016390;28;45785;-81
2022/06/27 06:59:16;;;;;;;;;3.00;3.00;;;;;19.42;55.19;100924.00;5016768;28;45599;-79
2022/06/27 07:01:43;;;;;;;;;4.00;2.00;;;;;19.43;55.50;100945.13;5016328;28;45780;-79
2022/06/27 07:07:32;;;;;;;;;3.00;2.00;;;;;19.38;55.54;100942.06;5015914;28;45603;-79
2022/06/27 07:09:59;;;;;;;;;3.00;2.75;;;;;19.29;55.06;100958.97;5016269;28;45736;-79
2022/06/27 07:12:26;;;;;;;;;4.25;2.00;;;;;19.11;55.23;100966.97;5015881;28;45575;-79
2022/06/27 07:14:54;;;;;;;;;3.00;3.00;;;;;19.04;55.26;100970.44;5015429;28;45556;-76
2022/06/27 07:17:24;;;;;;;;;4.00;3.00;;;;;18.88;55.67;100962.34;5016109;28;45587;-79
2022/06/27 07:19:52;;;;;;;;;4.00;3.00;;;;;18.85;55.79;100969.59;5014539;28;45450;-79
2022/06/27 07:22:19;;;;;;;;;3.75;3.00;;;;;18.86;56.32;100970.44;5015906;28;45723;-79
2022/06/27 07:24:45;;;;;;;;;3.75;3.75;;;;;18.75;55.90;100960.91;5016038;28;45887;-79
2022/06/27 07:27:11;;;;;;;;;3.75;3.25;;;;;18.85;56.25;100979.41;5015888;28;45651;-78
2022/06/27 07:29:36;;;;;;;;;6.25;5.00;;;;;18.77;55.89;100966.06;5015712;28;45541;-80
2022/06/27 07:32:04;;;;;;;;;3.00;3.00;;;;;18.82;55.94;100980.56;5015286;28;45674;-80
2022/06/27 07:34:29;;;;;;;;;2.75;2.25;;;;;18.78;55.81;100975.69;5013820;28;47095;-81
2022/06/27 07:36:56;;;;;;;;;2.00;2.00;;;;;18.78;55.75;100973.06;5015519;28;45493;-80
2022/06/27 07:39:21;;;;;;;;;3.00;2.75;;;;;18.73;55.78;100962.88;5014336;28;45707;-81
2022/06/27 07:41:49;;;;;;;;;3.00;2.50;;;;;18.78;55.93;100973.06;5015716;28;45828;-80
2022/06/27 07:44:15;;;;;;;;;4.25;4.00;;;;;18.72;55.82;100953.25;5015706;28;46059;-80
2022/06/27 07:46:40;;;;;;;;;2.00;2.00;;;;;18.79;55.45;100961.41;5015104;28;45536;-80
2022/06/27 07:52:27;;;;;;;;;4.00;3.50;;;;;18.88;55.62;100979.09;5012851;28;45720;-80
2022/06/27 07:54:53;;;;;;;;;2.75;2.00;;;;;18.93;55.71;100979.47;5015208;28;46211;-81
2022/06/27 07:57:19;;;;;;;;;2.50;2.50;;;;;18.96;55.12;100970.34;5015208;28;45767;-80
2022/06/27 07:59:44;;;;;;;;;3.00;2.75;;;;;18.95;55.62;100977.47;5015328;28;45605;-79
2022/06/27 08:02:10;;;;;;;;;2.00;2.00;;;;;18.98;55.39;100984.31;5015096;28;45677;-81
2022/06/27 08:07:57;;;;;;;;;3.50;3.00;;;;;18.98;55.22;100979.84;5015497;28;45698;-80
2022/06/27 08:10:23;;;;;;;;;2.00;2.00;;;;;18.98;55.84;100989.63;5015790;28;45697;-81
2022/06/27 08:12:48;;;;;;;;;2.00;2.00;;;;;19.02;55.41;100996.28;5016156;28;45649;-84
2022/06/27 08:15:16;;;;;;;;;3.00;3.00;;;;;19.02;55.76;100996.28;5016344;28;45566;-81
2022/06/27 08:17:42;;;;;;;;;3.50;2.50;;;;;19.00;55.17;101015.03;5016349;28;45598;-81
2022/06/27 08:20:08;;;;;;;;;4.75;2.75;;;;;18.96;55.10;101018.16;5015635;28;45766;-81
2022/06/27 08:22:35;;;;;;;;;2.25;2.25;;;;;18.90;55.30;101030.22;5015115;28;46874;-83
2022/06/27 08:25:01;;;;;;;;;4.00;3.00;;;;;18.83;55.69;101024.72;5016821;28;45935;-82
2022/06/27 08:27:26;;;;;;;;;4.00;3.00;;;;;18.75;55.48;101021.97;5016180;28;45803;-85
2022/06/27 08:29:52;;;;;;;;;4.75;2.00;;;;;18.71;55.52;101009.16;5017881;28;45586;-81
2022/06/27 08:32:17;;;;;;;;;4.00;3.00;;;;;18.69;55.67;100996.00;5016412;28;46975;-85
2022/06/27 08:38:05;;;;;;;;;2.00;2.00;;;;;18.66;56.10;101024.69;5018137;28;45568;-84
2022/06/27 08:40:32;;;;;;;;;1.75;1.25;;;;;18.59;56.24;101026.28;5015989;28;45704;-81
2022/06/27 08:42:58;;;;;;;;;2.00;2.00;;;;;18.55;57.11;101015.13;4996501;28;47481;-83
2022/06/27 08:45:25;;;;;;;;;1.00;1.00;;;;;18.54;56.91;101001.97;5014741;28;46139;-83
2022/06/27 08:47:51;;;;;;;;;1.50;1.50;;;;;18.42;56.18;100994.22;5014965;28;45738;-84
2022/06/27 08:50:17;;;;;;;;;1.25;1.00;;;;;18.51;55.98;101019.03;5015183;28;45595;-83
2022/06/27 08:52:45;;;;;;;;;2.00;1.00;;;;;18.56;55.33;101021.28;5015273;28;45690;-84
2022/06/27 08:55:11;;;;;;;;;2.00;1.00;;;;;18.57;55.57;101017.66;5015748;28;45610;-83
2022/06/27 08:57:41;;;;;;;;;1.00;1.00;;;;;18.57;55.23;101012.34;5015803;28;45662;-86
2022/06/27 09:00:08;;;;;;;;;1.00;1.00;;;;;18.56;55.76;100990.25;5016118;28;45565;-86
2022/06/27 09:02:44;;;;;;;;;2.00;2.00;;;;;18.68;55.55;101014.75;5013973;28;47370;-84
2022/06/27 09:09:03;;;;;;;;;2.75;2.75;;;;;18.85;55.10;101005.94;5015082;28;45677;-82
2022/06/27 09:11:33;;;;;;;;;2.25;2.00;;;;;18.85;54.29;100995.31;5015597;28;45586;-83
2022/06/27 09:13:58;;;;;;;;;3.00;2.00;;;;;18.89;53.99;100987.91;5016207;28;46500;-81
2022/06/27 09:16:24;;;;;;;;;2.00;1.75;;;;;18.97;53.76;101003.88;5014929;28;45786;-82
2022/06/27 09:18:50;;;;;;;;;1.00;1.00;;;;;19.02;52.72;101007.75;5015456;28;45553;-82
2022/06/27 09:21:17;;;;;;;;;1.00;1.00;;;;;19.00;52.44;101000.94;5015047;28;45530;-81
2022/06/27 09:24:00;;;;;;;;;1.00;1.00;;;;;19.05;51.65;101002.16;5014843;28;46392;-80
2022/06/27 09:26:34;;;;;;;;;2.00;1.25;;;;;19.03;51.94;100998.81;4996994;28;47204;-80
2022/06/27 09:29:06;;;;;;;;;2.00;1.00;;;;;19.17;52.23;101016.84;5015460;28;45616;-81
2022/06/27 09:31:35;;;;;;;;;4.75;2.50;;;;;19.14;51.92;100992.41;5015325;28;45547;-85
2022/06/27 09:34:23;;;;;;;;;1.25;1.00;;;;;19.24;51.97;101004.59;5015900;28;46623;-83
2022/06/27 09:36:55;;;;;;;;;1.00;1.00;;;;;19.39;51.99;101012.00;5016656;28;45825;-80
2022/06/27 09:39:35;;;;;;;;;1.00;0.50;;;;;19.41;51.36;101007.38;5016160;28;45643;-83
2022/06/27 09:42:03;;;;;;;;;2.50;1.00;;;;;19.53;50.51;101016.81;5017227;28;45679;-82
2022/06/27 09:44:35;;;;;;;;;1.00;1.00;;;;;19.56;51.15;101014.66;5000544;28;48305;-83
2022/06/27 09:47:11;;;;;;;;;1.00;1.00;;;;;19.65;50.52;101021.66;5001651;28;46801;-83
2022/06/27 09:49:39;;;;;;;;;1.00;1.00;;;;;19.70;49.83;101014.06;5019292;28;45600;-79
2022/06/27 09:52:08;;;;;;;;;2.00;2.00;;;;;19.76;49.78;101014.44;5014673;28;45864;-77
2022/06/27 09:54:35;;;;;;;;;1.50;1.00;;;;;19.81;49.49;101012.13;5015217;28;46519;-78
2022/06/27 09:57:02;;;;;;;;;1.00;1.00;;;;;19.81;49.78;101007.63;5014706;28;45813;-78
2022/06/27 09:59:28;;;;;;;;;1.50;0.50;;;;;19.87;50.17;101003.50;5014564;28;45781;-78
2022/06/27 10:01:57;;;;;;;;;1.00;1.00;;;;;19.90;49.32;100998.72;5015035;28;45571;-78
2022/06/27 10:04:28;;;;;;;;;2.00;1.00;;;;;19.97;49.14;101005.03;5014397;28;46584;-78
2022/06/27 10:06:54;;;;;;;;;1.00;1.00;;;;;20.06;49.16;101013.91;5014221;28;46058;-78
2022/06/27 10:09:24;;;;;;;;;2.00;1.00;;;;;20.13;49.20;101010.44;5013882;28;45798;-76
2022/06/27 10:12:18;;;;;;;;;2.00;1.00;;;;;20.19;49.65;101019.59;5014031;28;45839;-78
2022/06/27 10:14:44;;;;;;;;;2.00;1.00;;;;;20.18;49.32;101007.31;5013889;28;46703;-77
2022/06/27 10:17:14;;;;;;;;;2.00;1.00;;;;;20.26;48.43;101025.09;5013874;28;45622;-76
2022/06/27 10:20:00;;;;;;;;;2.00;1.00;;;;;20.28;47.38;101017.81;5013928;28;45870;-78
2022/06/27 10:22:25;;;;;;;;;2.00;2.00;;;;;20.30;47.49;101013.13;5014060;28;45780;-80
2022/06/27 10:24:51;;;;;;;;;1.25;1.25;;;;;20.33;47.33;101021.69;5013693;28;45598;-75
2022/06/27 10:27:30;;;;;;;;;1.00;1.00;;;;;20.42;47.09;101020.69;5013345;28;46266;-75
2022/06/27 10:29:55;;;;;;;;;0.75;0.75;;;;;20.47;47.07;101030.84;5012221;28;45699;-78
2022/06/27 10:32:40;;;;;;;;;1.00;0.75;;;;;20.51;46.86;101019.72;5013742;28;45764;-78
2022/06/27 10:35:07;;;;;;;;;1.00;1.00;;;;;20.59;46.82;101018.06;5013488;28;45653;-78
2022/06/27 10:37:34;;;;;;;;;0.75;0.75;;;;;20.65;46.85;101020.09;5011901;28;47197;-77
2022/06/27 10:40:18;;;;;;;;;0.50;0.50;;;;;20.75;46.59;101018.09;5013741;28;45659;-77
2022/06/27 10:42:51;;;;;;;;;1.25;1.25;;;;;20.82;46.28;101011.13;5013218;28;45520;-75
2022/06/27 10:45:20;;;;;;;;;1.00;1.00;;;;;20.88;46.46;101015.78;5012960;28;46834;-77
2022/06/27 10:47:45;;;;;;;;;1.50;1.00;;;;;20.95;46.02;101016.78;5012752;28;45526;-77
2022/06/27 10:50:16;;;;;;;;;2.00;1.00;;;;;20.94;45.51;101017.81;5013899;28;45604;-77
2022/06/27 10:52:42;;;;;;;;;0.75;0.00;;;;;20.98;45.61;101011.13;5016287;28;45543;-76
2022/06/27 10:55:24;;;;;;;;;1.00;1.00;;;;;21.01;45.87;101009.94;5016447;28;46911;-79
2022/06/27 10:57:52;;;;;;;;;1.75;1.75;;;;;20.97;45.84;101001.47;5016288;28;45622;-76
2022/06/27 11:00:39;;;;;;;;;1.25;1.00;;;;;21.16;45.71;101021.66;5016549;28;45584;-78
2022/06/27 11:03:06;;;;;;;;;1.00;1.00;;;;;21.19;45.94;101038.13;5016384;28;45780;-79
2022/06/27 11:05:50;;;;;;;;;1.00;1.00;;;;;21.23;45.49;101025.31;5016444;28;46647;-79
2022/06/27 11:08:16;;;;;;;;;1.00;1.00;;;;;21.28;45.57;101017.63;5016278;28;45786;-78
2022/06/27 11:10:43;;;;;;;;;1.25;1.00;;;;;21.32;44.74;101017.13;5015963;28;45563;-77
2022/06/27 11:13:09;;;;;;;;;2.00;2.00;;;;;21.40;44.08;101020.78;5016144;28;45873;-78
2022/06/27 11:15:34;;;;;;;;;1.00;1.00;;;;;21.48;44.20;101013.63;5015964;28;46467;-77
2022/06/27 11:18:06;;;;;;;;;2.00;1.50;;;;;21.54;44.08;101022.78;5016068;28;45584;-78
2022/06/27 11:20:32;;;;;;;;;2.00;1.00;;;;;21.62;44.24;101012.09;5016285;28;45604;-77
2022/06/27 11:23:00;;;;;;;;;2.25;1.25;;;;;21.68;43.83;101022.91;5016456;28;45473;-82
2022/06/27 11:25:27;;;;;;;;;1.00;1.00;;;;;21.66;43.65;101003.56;5016226;28;45715;-78
2022/06/27 11:31:57;;;;;;;;;2.50;2.00;;;;;21.73;42.93;101023.22;5016007;28;46053;-78
2022/06/27 11:33:33;;;;;;;;;1.50;0.00;;;;;21.74;41.79;101014.22;5016134;28;45493;-79
2022/06/27 11:36:00;;;;;;;;;1.00;1.00;;;;;21.74;42.06;101013.38;5015897;28;46476;-80
2022/06/27 11:38:29;;;;;;;;;1.75;1.25;;;;;21.82;42.19;101009.84;5016031;28;46012;-80
2022/06/27 11:40:59;;;;;;;;;0.50;0.50;;;;;21.86;41.82;101009.34;5017099;28;45504;-80
2022/06/27 11:43:47;;;;;;;;;2.00;1.50;;;;;21.90;41.46;101005.34;5016521;28;45614;-81
2022/06/27 11:46:32;;;;;;;;;0.00;0.00;;;;;21.86;41.22;101005.84;5016265;28;45525;-83
2022/06/27 11:49:26;;;;;;;;;1.75;1.00;;;;;22.00;40.49;101005.97;5016476;28;46224;-85
2022/06/27 11:52:02;;;;;;;;;0.00;0.00;;;;;22.03;39.86;101016.31;5015491;28;45641;-83
2022/06/27 11:54:37;;;;;;;;;1.00;0.00;;;;;22.06;39.23;101009.78;5016919;28;45793;-82
2022/06/27 11:57:03;;;;;;;;;2.00;0.25;;;;;22.09;39.04;101004.94;5015691;28;45741;-81
2022/06/27 11:59:29;;;;;;;;;1.00;1.00;;;;;22.14;38.69;101009.75;5015955;28;46343;-80
2022/06/27 12:02:00;;;;;;;;;1.00;0.00;;;;;22.27;38.34;101011.88;4997330;28;45661;-81
2022/06/27 12:04:28;;;;;;;;;1.00;1.00;;;;;22.32;38.00;101004.16;5017375;28;45637;-85
2022/06/27 12:06:58;;;;;;;;;0.50;0.50;;;;;22.30;37.80;101003.50;4998164;28;47826;-85
2022/06/27 12:09:26;;;;;;;;;0.00;0.00;;;;;22.44;38.22;101011.59;5015627;28;46088;-82
2022/06/27 12:11:56;;;;;;;;;1.75;1.00;;;;;22.45;37.45;101013.28;5015565;28;45656;-85
2022/06/27 12:14:22;;;;;;;;;2.00;0.50;;;;;22.55;36.64;101013.03;5015638;28;45677;-83
2022/06/27 12:16:51;;;;;;;;;0.00;0.00;;;;;22.59;36.19;101017.00;5015890;28;46654;-82
2022/06/27 12:19:17;;;;;;;;;0.00;0.00;;;;;22.63;35.18;101014.81;5016198;28;45690;-82
2022/06/27 12:21:44;;;;;;;;;0.00;0.00;;;;;22.64;35.30;101011.97;5015226;28;45648;-81
2022/06/27 12:24:10;;;;;;;;;0.50;0.25;;;;;22.74;35.08;101014.44;4997699;28;45821;-82
2022/06/27 12:26:36;;;;;;;;;0.00;0.00;;;;;22.85;34.84;101030.06;5015471;28;45512;-84
2022/06/27 12:29:04;;;;;;;;;0.00;0.00;;;;;22.87;34.30;101034.22;5016384;28;46283;-82
2022/06/27 12:31:29;;;;;;;;;0.50;0.50;;;;;22.85;34.48;101022.88;5015580;28;45696;-83
2022/06/27 12:33:55;;;;;;;;;1.00;0.25;;;;;22.92;34.62;101044.38;5017560;28;45659;-82
2022/06/27 12:36:21;;;;;;;;;0.00;0.00;;;;;22.84;34.79;101018.53;5017069;28;45694;-83